createdAt,value
2022-12-25T00:00:56.986Z,0.80
2022-12-25T00:03:23.972Z,0.70
2022-12-25T00:05:51.221Z,0.70
2022-12-25T00:08:17.905Z,0.60
2022-12-25T00:10:45.579Z,0.60
2022-12-25T00:13:12.686Z,0.60
2022-12-25T00:15:40.621Z,0.70
2022-12-25T00:18:07.640Z,0.80
2022-12-25T00:20:34.426Z,1.00
2022-12-25T00:23:01.253Z,1.60
2022-12-25T00:25:28.268Z,1.10
2022-12-25T00:27:55.010Z,1.20
2022-12-25T00:30:21.703Z,2.40
2022-12-25T00:32:48.484Z,1.40
2022-12-25T00:35:15.348Z,1.40
2022-12-25T00:37:42.099Z,1.50
2022-12-25T00:40:09.247Z,1.50
2022-12-25T00:42:35.984Z,1.60
2022-12-25T00:45:02.804Z,1.70
2022-12-25T00:47:29.686Z,1.70
2022-12-25T00:49:56.720Z,1.70
2022-12-25T00:52:23.483Z,1.70
2022-12-25T00:54:50.179Z,1.80
2022-12-25T00:57:17.094Z,1.80
2022-12-25T00:59:43.773Z,1.80
2022-12-25T01:02:26.207Z,1.80
2022-12-25T01:04:56.817Z,1.80
2022-12-25T01:07:25.357Z,1.70
2022-12-25T01:10:10.649Z,1.70
2022-12-25T01:12:38.999Z,1.70
2022-12-25T01:15:06.728Z,1.60
2022-12-25T01:17:33.419Z,1.60
2022-12-25T01:20:00.203Z,1.60
2022-12-25T01:22:27.214Z,1.50
2022-12-25T01:24:54.051Z,1.40
2022-12-25T01:27:20.707Z,1.40
2022-12-25T01:29:47.611Z,2.70
2022-12-25T01:32:14.701Z,1.30
2022-12-25T01:34:41.548Z,1.20
2022-12-25T01:37:08.706Z,1.20
2022-12-25T01:39:35.771Z,1.10
2022-12-25T01:42:02.588Z,1.10
2022-12-25T01:44:35.466Z,1.10
2022-12-25T01:47:02.845Z,1.20
2022-12-25T01:49:29.787Z,1.20
2022-12-25T01:51:58.963Z,1.30
2022-12-25T01:54:28.074Z,1.40
2022-12-25T01:56:57.813Z,1.50
2022-12-25T01:59:26.097Z,1.60
2022-12-25T02:01:53.453Z,1.70
2022-12-25T02:04:38.962Z,1.80
2022-12-25T02:07:07.904Z,1.80
2022-12-25T02:09:35.208Z,1.80
2022-12-25T02:12:02.101Z,1.70
2022-12-25T02:14:31.268Z,1.70
2022-12-25T02:17:05.319Z,1.70
2022-12-25T02:19:52.784Z,1.80
2022-12-25T02:22:39.435Z,2.50
2022-12-25T02:25:21.718Z,1.80
2022-12-25T02:28:07.119Z,1.70
2022-12-25T02:30:37.114Z,1.70
2022-12-25T02:33:27.469Z,1.70
2022-12-25T02:35:55.907Z,1.70
2022-12-25T02:38:36.792Z,1.70
2022-12-25T02:41:08.581Z,1.60
2022-12-25T02:43:57.089Z,1.60
2022-12-25T02:46:43.199Z,1.50
2022-12-25T02:49:33.799Z,1.60
2022-12-25T02:52:23.559Z,1.60
2022-12-25T02:55:14.789Z,1.50
2022-12-25T02:58:07.359Z,1.60
2022-12-25T03:00:54.967Z,1.70
2022-12-25T03:03:42.138Z,1.80
2022-12-25T03:06:28.273Z,1.80
2022-12-25T03:09:15.897Z,3.60
2022-12-25T03:11:43.863Z,1.80
2022-12-25T03:14:29.373Z,1.80
2022-12-25T03:16:58.225Z,1.70
2022-12-25T03:19:45.006Z,1.70
2022-12-25T03:22:45.170Z,1.60
2022-12-25T03:25:31.139Z,1.60
2022-12-25T03:27:58.222Z,1.60
2022-12-25T03:30:57.275Z,1.60
2022-12-25T03:33:44.514Z,1.60
2022-12-25T03:36:29.962Z,1.60
2022-12-25T03:39:23.435Z,1.60
2022-12-25T03:42:10.885Z,1.60
2022-12-25T03:44:55.540Z,2.60
2022-12-25T03:47:49.628Z,1.60
2022-12-25T03:50:45.831Z,1.70
2022-12-25T03:53:40.364Z,1.70
2022-12-25T03:56:26.204Z,1.80
2022-12-25T03:59:15.445Z,1.80
2022-12-25T04:02:05.862Z,1.70
2022-12-25T04:04:51.484Z,1.70
2022-12-25T04:07:36.524Z,1.70
2022-12-25T04:10:21.978Z,1.70
2022-12-25T04:13:07.434Z,1.70
2022-12-25T04:15:53.099Z,1.70
2022-12-25T04:18:38.393Z,1.60
2022-12-25T04:21:23.958Z,1.60
2022-12-25T04:24:09.521Z,1.60
2022-12-25T04:26:54.987Z,1.60
2022-12-25T04:29:40.083Z,2.00
2022-12-25T04:32:25.566Z,1.60
2022-12-25T04:35:10.579Z,1.50
2022-12-25T04:37:37.533Z,1.60
2022-12-25T04:40:04.465Z,1.60
2022-12-25T04:42:31.182Z,1.60
2022-12-25T04:44:58.240Z,1.60
2022-12-25T04:47:25.024Z,1.60
2022-12-25T04:49:51.814Z,1.60
2022-12-25T04:52:18.695Z,1.60
2022-12-25T04:54:45.544Z,1.60
2022-12-25T04:57:12.550Z,1.70
2022-12-25T04:59:39.457Z,1.70
2022-12-25T05:02:06.412Z,1.70
2022-12-25T05:04:33.310Z,1.70
2022-12-25T05:07:00.235Z,1.80
2022-12-25T05:09:27.417Z,1.80
2022-12-25T05:11:54.159Z,1.80
2022-12-25T05:14:20.854Z,1.90
2022-12-25T05:16:47.876Z,1.80
2022-12-25T05:19:14.759Z,1.80
2022-12-25T05:21:41.745Z,1.80
2022-12-25T05:24:08.561Z,1.80
2022-12-25T05:26:35.574Z,1.80
2022-12-25T05:29:02.601Z,1.80
2022-12-25T05:31:29.646Z,1.80
2022-12-25T05:33:56.667Z,1.80
2022-12-25T05:36:23.873Z,1.80
2022-12-25T05:38:51.025Z,1.70
2022-12-25T05:41:17.927Z,1.70
2022-12-25T05:43:44.679Z,1.70
2022-12-25T05:46:12.890Z,1.70
2022-12-25T05:48:39.938Z,1.70
2022-12-25T05:51:07.965Z,3.80
2022-12-25T05:53:38.483Z,1.70
2022-12-25T05:56:07.215Z,1.70
2022-12-25T05:58:35.259Z,1.80
2022-12-25T06:01:02.410Z,1.80
2022-12-25T06:03:29.304Z,1.80
2022-12-25T06:05:56.385Z,1.80
2022-12-25T06:08:23.171Z,1.80
2022-12-25T06:10:50.019Z,1.80
2022-12-25T06:13:16.945Z,1.80
2022-12-25T06:15:43.692Z,1.80
2022-12-25T06:18:10.583Z,1.80
2022-12-25T06:20:40.255Z,1.80
2022-12-25T06:23:07.126Z,1.80
2022-12-25T06:25:34.204Z,1.80
2022-12-25T06:28:01.169Z,1.80
2022-12-25T06:30:27.959Z,1.90
2022-12-25T06:32:54.799Z,1.90
2022-12-25T06:35:21.642Z,1.90
2022-12-25T06:37:48.359Z,1.90
2022-12-25T06:40:15.338Z,1.90
2022-12-25T06:42:42.219Z,1.90
2022-12-25T06:45:09.100Z,1.90
2022-12-25T06:47:37.115Z,1.90
2022-12-25T06:50:04.505Z,1.90
2022-12-25T06:52:34.609Z,1.90
2022-12-25T06:55:01.465Z,1.90
2022-12-25T06:57:28.438Z,2.00
2022-12-25T06:59:55.887Z,2.00
2022-12-25T07:02:24.505Z,2.00
2022-12-25T07:04:51.925Z,2.00
2022-12-25T07:07:24.476Z,2.00
2022-12-25T07:09:51.203Z,2.00
2022-12-25T07:12:18.013Z,2.00
2022-12-25T07:14:46.050Z,2.10
2022-12-25T07:17:12.957Z,2.10
2022-12-25T07:19:44.680Z,2.10
2022-12-25T07:22:11.861Z,2.20
2022-12-25T07:24:38.773Z,2.20
2022-12-25T07:27:05.874Z,2.20
2022-12-25T07:29:32.856Z,2.20
2022-12-25T07:32:00.108Z,2.20
2022-12-25T07:34:27.149Z,2.20
2022-12-25T07:37:00.386Z,2.20
2022-12-25T07:39:27.428Z,2.20
2022-12-25T07:41:58.239Z,2.20
2022-12-25T07:44:25.687Z,2.20
2022-12-25T07:46:59.249Z,2.20
2022-12-25T07:49:26.204Z,2.20
2022-12-25T07:51:53.066Z,2.20
2022-12-25T07:54:22.225Z,2.90
2022-12-25T07:56:52.437Z,2.30
2022-12-25T07:59:19.655Z,2.30
2022-12-25T08:01:46.417Z,2.30
2022-12-25T08:04:16.937Z,2.30
2022-12-25T08:06:43.765Z,2.30
2022-12-25T08:09:12.690Z,4.10
2022-12-25T08:11:39.807Z,2.30
2022-12-25T08:14:07.215Z,2.30
2022-12-25T08:16:34.318Z,2.30
2022-12-25T08:19:01.529Z,2.30
2022-12-25T08:21:28.172Z,2.30
2022-12-25T08:23:54.756Z,2.30
2022-12-25T08:26:22.576Z,4.60
2022-12-25T08:28:49.471Z,3.60
2022-12-25T08:31:20.764Z,2.40
2022-12-25T08:33:48.877Z,2.50
2022-12-25T08:36:15.947Z,2.50
2022-12-25T08:38:42.788Z,2.50
2022-12-25T08:41:10.252Z,2.50
2022-12-25T08:43:37.291Z,2.50
2022-12-25T08:46:04.208Z,2.50
2022-12-25T08:48:31.214Z,3.90
2022-12-25T08:50:58.243Z,2.50
2022-12-25T08:53:24.852Z,4.90
2022-12-25T08:55:58.483Z,2.50
2022-12-25T08:58:25.485Z,2.60
2022-12-25T09:00:52.126Z,4.60
2022-12-25T09:03:19.193Z,2.60
2022-12-25T09:05:45.899Z,2.70
2022-12-25T09:08:12.575Z,2.70
2022-12-25T09:10:39.342Z,2.80
2022-12-25T09:13:05.978Z,2.80
2022-12-25T09:15:32.768Z,4.50
2022-12-25T09:17:59.612Z,2.80
2022-12-25T09:20:26.434Z,2.80
2022-12-25T09:22:53.299Z,2.80
2022-12-25T09:25:20.131Z,2.80
2022-12-25T09:27:47.116Z,2.90
2022-12-25T09:30:14.069Z,3.00
2022-12-25T09:32:41.000Z,1.80
2022-12-25T09:35:08.656Z,3.10
2022-12-25T09:37:35.975Z,3.10
2022-12-25T09:40:03.218Z,3.20
2022-12-25T09:42:37.085Z,3.20
2022-12-25T09:45:12.103Z,3.20
2022-12-25T09:47:40.465Z,3.20
2022-12-25T09:50:11.379Z,3.20
2022-12-25T09:52:49.217Z,3.20
2022-12-25T09:55:26.473Z,3.30
2022-12-25T09:57:58.393Z,3.30
2022-12-25T10:00:28.188Z,3.30
2022-12-25T10:03:01.427Z,3.30
2022-12-25T10:05:34.746Z,3.30
2022-12-25T10:08:19.493Z,3.30
2022-12-25T10:10:50.034Z,3.30
2022-12-25T10:13:23.218Z,3.30
2022-12-25T10:15:59.199Z,3.30
2022-12-25T10:18:46.993Z,3.30
2022-12-25T10:21:15.320Z,3.30
2022-12-25T10:23:46.289Z,3.30
2022-12-25T10:26:15.059Z,3.40
2022-12-25T10:28:43.571Z,3.40
2022-12-25T10:31:23.962Z,3.40
2022-12-25T10:33:51.693Z,3.40
2022-12-25T10:36:20.498Z,3.40
2022-12-25T10:38:47.602Z,3.40
2022-12-25T10:41:26.311Z,3.50
2022-12-25T10:43:54.079Z,3.50
2022-12-25T10:46:21.483Z,3.50
2022-12-25T10:48:53.031Z,4.20
2022-12-25T10:51:45.769Z,3.60
2022-12-25T10:54:18.320Z,3.50
2022-12-25T10:56:59.016Z,1.50
2022-12-25T10:59:27.739Z,3.50
2022-12-25T11:01:55.980Z,3.50
2022-12-25T11:04:25.707Z,3.50
2022-12-25T11:07:01.495Z,3.60
2022-12-25T11:09:28.629Z,3.60
2022-12-25T11:11:55.353Z,3.60
2022-12-25T11:14:22.815Z,4.70
2022-12-25T11:16:50.599Z,3.60
2022-12-25T11:19:28.471Z,3.60
2022-12-25T11:22:16.997Z,5.00
2022-12-25T11:24:43.706Z,3.70
2022-12-25T11:27:24.761Z,3.70
2022-12-25T11:29:54.230Z,3.70
2022-12-25T11:32:37.821Z,3.70
2022-12-25T11:35:10.294Z,3.70
2022-12-25T11:37:48.502Z,3.70
2022-12-25T11:40:20.699Z,3.80
2022-12-25T11:42:53.208Z,3.80
2022-12-25T11:45:23.328Z,3.90
2022-12-25T11:47:52.657Z,3.90
2022-12-25T11:50:25.522Z,5.40
2022-12-25T11:52:52.687Z,3.90
2022-12-25T11:55:54.940Z,3.90
2022-12-25T11:58:33.126Z,3.90
2022-12-25T12:01:02.111Z,3.90
2022-12-25T12:03:35.007Z,3.80
2022-12-25T12:06:01.681Z,3.80
2022-12-25T12:08:28.767Z,3.90
2022-12-25T12:11:16.086Z,3.80
2022-12-25T12:13:58.275Z,3.80
2022-12-25T12:16:25.338Z,3.80
2022-12-25T12:18:52.020Z,4.30
2022-12-25T12:21:29.055Z,4.40
2022-12-25T12:24:05.243Z,3.80
2022-12-25T12:26:37.964Z,3.80
2022-12-25T12:29:05.874Z,3.80
2022-12-25T12:31:45.477Z,3.80
2022-12-25T12:34:23.260Z,3.80
2022-12-25T12:36:50.917Z,3.80
2022-12-25T12:39:23.600Z,4.20
2022-12-25T12:41:50.552Z,3.90
2022-12-25T12:44:17.842Z,3.90
2022-12-25T12:46:52.470Z,4.00
2022-12-25T12:49:24.792Z,4.00
2022-12-25T12:52:03.232Z,4.00
2022-12-25T12:54:30.109Z,4.00
2022-12-25T12:57:04.393Z,4.10
2022-12-25T12:59:34.078Z,4.10
2022-12-25T13:02:00.915Z,4.10
2022-12-25T13:04:45.383Z,4.10
2022-12-25T13:07:32.319Z,4.10
2022-12-25T13:09:59.286Z,4.10
2022-12-25T13:12:26.266Z,4.10
2022-12-25T13:14:53.261Z,4.10
2022-12-25T13:17:24.877Z,4.10
2022-12-25T13:19:55.004Z,4.10
2022-12-25T13:22:26.863Z,4.10
2022-12-25T13:24:58.020Z,4.10
2022-12-25T13:27:28.679Z,4.10
2022-12-25T13:29:55.679Z,4.10
2022-12-25T13:32:25.418Z,4.10
2022-12-25T13:34:53.071Z,4.10
2022-12-25T13:37:22.103Z,4.10
2022-12-25T13:39:52.177Z,4.10
2022-12-25T13:42:21.418Z,4.10
2022-12-25T13:44:50.553Z,4.10
2022-12-25T13:47:17.337Z,4.10
2022-12-25T13:49:44.815Z,4.20
2022-12-25T13:52:13.076Z,4.10
2022-12-25T13:54:40.067Z,4.10
2022-12-25T13:57:13.529Z,5.20
2022-12-25T13:59:43.986Z,4.10
2022-12-25T14:02:26.392Z,4.10
2022-12-25T14:04:53.043Z,4.10
2022-12-25T14:07:24.071Z,4.10
2022-12-25T14:09:54.127Z,4.10
2022-12-25T14:12:21.047Z,4.20
2022-12-25T14:14:49.665Z,4.20
2022-12-25T14:17:16.432Z,4.20
2022-12-25T14:19:43.094Z,4.20
2022-12-25T14:22:11.705Z,4.20
2022-12-25T14:24:39.528Z,4.20
2022-12-25T14:27:07.858Z,5.60
2022-12-25T14:29:43.124Z,4.20
2022-12-25T14:32:21.837Z,4.30
2022-12-25T14:34:59.540Z,4.30
2022-12-25T14:37:29.804Z,4.30
2022-12-25T14:39:58.718Z,5.30
2022-12-25T14:42:28.248Z,4.30
2022-12-25T14:44:59.587Z,4.30
2022-12-25T14:47:26.804Z,6.40
2022-12-25T14:49:58.785Z,4.60
2022-12-25T14:52:27.088Z,4.30
2022-12-25T14:55:16.829Z,4.30
2022-12-25T14:57:46.789Z,4.30
2022-12-25T15:00:19.747Z,4.40
2022-12-25T15:02:47.096Z,4.40
2022-12-25T15:05:34.706Z,4.40
2022-12-25T15:08:13.351Z,4.40
2022-12-25T15:13:27.678Z,5.30
2022-12-25T15:16:02.496Z,4.40
2022-12-25T15:18:31.994Z,4.40
2022-12-25T15:20:58.911Z,4.40
2022-12-25T15:23:26.709Z,4.40
2022-12-25T15:25:53.529Z,4.40
2022-12-25T15:28:20.300Z,5.90
2022-12-25T15:30:47.141Z,4.40
2022-12-25T15:33:14.627Z,4.50
2022-12-25T15:35:43.676Z,4.50
2022-12-25T15:38:11.519Z,4.50
2022-12-25T15:40:38.334Z,4.50
2022-12-25T15:43:11.314Z,4.50
2022-12-25T15:45:47.652Z,4.50
2022-12-25T15:48:14.529Z,5.30
2022-12-25T15:50:41.146Z,4.50
2022-12-25T15:53:07.964Z,4.80
2022-12-25T15:55:34.667Z,5.30
2022-12-25T15:58:01.488Z,4.60
2022-12-25T16:00:28.171Z,4.60
2022-12-25T16:02:55.062Z,4.60
2022-12-25T16:05:22.134Z,4.60
2022-12-25T16:07:49.189Z,4.70
2022-12-25T16:10:19.640Z,4.70
2022-12-25T16:12:46.665Z,4.60
2022-12-25T16:15:14.772Z,4.60
2022-12-25T16:17:41.913Z,4.70
2022-12-25T16:20:09.126Z,4.70
2022-12-25T16:22:42.296Z,4.70
2022-12-25T16:25:16.800Z,4.70
2022-12-25T16:27:43.857Z,4.70
2022-12-25T16:30:12.139Z,4.80
2022-12-25T16:32:38.911Z,4.80
2022-12-25T16:35:06.036Z,4.80
2022-12-25T16:37:32.818Z,4.80
2022-12-25T16:40:02.963Z,4.90
2022-12-25T16:42:29.658Z,4.90
2022-12-25T16:44:56.470Z,5.80
2022-12-25T16:47:23.398Z,4.90
2022-12-25T16:49:50.203Z,4.90
2022-12-25T16:52:16.896Z,5.00
2022-12-25T16:54:45.280Z,7.00
2022-12-25T16:57:12.114Z,5.00
2022-12-25T16:59:38.916Z,5.10
2022-12-25T17:02:05.939Z,5.10
2022-12-25T17:04:32.735Z,5.20
2022-12-25T17:07:00.513Z,5.10
2022-12-25T17:09:27.139Z,5.20
2022-12-25T17:11:58.382Z,5.20
2022-12-25T17:14:25.535Z,5.20
2022-12-25T17:16:52.424Z,5.20
2022-12-25T17:19:22.087Z,5.30
2022-12-25T17:21:48.890Z,5.30
2022-12-25T17:24:16.027Z,5.30
2022-12-25T17:26:43.969Z,5.30
2022-12-25T17:29:12.239Z,5.30
2022-12-25T17:31:40.875Z,5.40
2022-12-25T17:34:08.359Z,5.40
2022-12-25T17:36:35.304Z,5.40
2022-12-25T17:39:02.631Z,6.40
2022-12-25T17:41:29.424Z,5.40
2022-12-25T17:43:56.127Z,5.40
2022-12-25T17:46:24.430Z,5.50
2022-12-25T17:48:52.065Z,5.50
2022-12-25T17:51:21.313Z,5.50
2022-12-25T17:53:49.106Z,5.50
2022-12-25T17:56:16.284Z,5.60
2022-12-25T17:58:43.384Z,5.50
2022-12-25T18:01:15.422Z,5.50
2022-12-25T18:03:42.782Z,5.50
2022-12-25T18:06:13.236Z,5.50
2022-12-25T18:08:40.531Z,5.50
2022-12-25T18:11:09.036Z,5.60
2022-12-25T18:13:36.224Z,5.60
2022-12-25T18:16:06.801Z,5.60
2022-12-25T18:18:34.196Z,5.60
2022-12-25T18:21:01.868Z,5.70
2022-12-25T18:23:28.527Z,5.70
2022-12-25T18:25:55.188Z,6.90
2022-12-25T18:28:21.799Z,5.80
2022-12-25T18:30:48.539Z,5.80
2022-12-25T18:33:15.170Z,6.00
2022-12-25T18:35:42.784Z,5.80
2022-12-25T18:38:10.421Z,5.80
2022-12-25T18:40:43.940Z,5.80
2022-12-25T18:43:11.041Z,5.90
2022-12-25T18:45:37.889Z,5.90
2022-12-25T18:48:06.257Z,5.90
2022-12-25T18:50:33.646Z,5.90
2022-12-25T18:53:00.493Z,6.20
2022-12-25T18:55:27.427Z,5.90
2022-12-25T18:57:54.281Z,6.30
2022-12-25T19:00:21.405Z,6.00
2022-12-25T19:02:48.645Z,6.00
2022-12-25T19:05:15.684Z,6.00
2022-12-25T19:07:42.525Z,6.10
2022-12-25T19:10:10.266Z,6.10
2022-12-25T19:12:37.033Z,6.10
2022-12-25T19:15:03.862Z,6.10
2022-12-25T19:17:32.042Z,6.10
2022-12-25T19:19:59.074Z,6.10
2022-12-25T19:22:25.931Z,6.20
2022-12-25T19:24:52.681Z,6.20
2022-12-25T19:27:19.255Z,6.20
2022-12-25T19:29:47.094Z,6.20
2022-12-25T19:32:13.816Z,6.20
2022-12-25T19:34:40.611Z,6.20
2022-12-25T19:37:07.897Z,6.20
2022-12-25T19:39:35.642Z,6.20
2022-12-25T19:42:02.311Z,6.30
2022-12-25T19:44:28.961Z,6.30
2022-12-25T19:46:55.890Z,7.60
2022-12-25T19:49:22.575Z,7.50
2022-12-25T19:51:49.258Z,6.30
2022-12-25T19:54:17.481Z,6.30
2022-12-25T19:56:44.288Z,6.40
2022-12-25T19:59:15.369Z,6.40
2022-12-25T20:01:45.795Z,6.40
2022-12-25T20:04:13.357Z,6.40
2022-12-25T20:06:42.499Z,6.40
2022-12-25T20:09:11.841Z,6.40
2022-12-25T20:11:39.156Z,6.40
2022-12-25T20:14:07.428Z,8.10
2022-12-25T20:16:36.467Z,7.50
2022-12-25T20:19:03.844Z,8.20
2022-12-25T20:21:30.792Z,7.20
2022-12-25T20:23:58.054Z,6.50
2022-12-25T20:26:27.089Z,8.40
2022-12-25T20:28:54.205Z,8.50
2022-12-25T20:31:22.956Z,6.50
2022-12-25T20:33:49.886Z,8.20
2022-12-25T20:36:17.483Z,8.00
2022-12-25T20:38:44.244Z,6.50
2022-12-25T20:41:29.474Z,8.00
2022-12-25T20:43:57.127Z,6.60
2022-12-25T20:46:28.121Z,6.60
2022-12-25T20:48:55.030Z,6.60
2022-12-25T20:51:23.064Z,6.50
2022-12-25T20:53:50.361Z,6.60
2022-12-25T20:56:17.809Z,7.80
2022-12-25T20:58:44.971Z,6.50
2022-12-25T21:01:15.862Z,6.50
2022-12-25T21:03:42.723Z,7.80
2022-12-25T21:06:10.472Z,6.50
2022-12-25T21:08:38.043Z,6.50
2022-12-25T21:11:05.641Z,6.50
2022-12-25T21:13:33.800Z,6.50
2022-12-25T21:16:00.606Z,6.50
2022-12-25T21:18:28.042Z,8.10
2022-12-25T21:20:56.218Z,6.50
2022-12-25T21:23:23.049Z,8.10
2022-12-25T21:25:49.853Z,7.90
2022-12-25T21:28:16.806Z,7.20
2022-12-25T21:30:43.506Z,6.50
2022-12-25T21:33:30.543Z,6.50
2022-12-25T21:36:04.024Z,6.60
2022-12-25T21:38:30.708Z,6.60
2022-12-25T21:41:02.010Z,8.50
2022-12-25T21:43:28.645Z,6.60
2022-12-25T21:48:00.155Z,6.50
2022-12-25T21:50:47.892Z,6.60
2022-12-25T21:53:18.862Z,6.50
2022-12-25T21:56:04.518Z,6.50
2022-12-25T21:58:31.482Z,6.50
2022-12-25T22:01:03.360Z,6.50
2022-12-25T22:03:30.488Z,6.50
2022-12-25T22:06:21.424Z,6.40
2022-12-25T22:08:48.477Z,6.40
2022-12-25T22:11:33.630Z,6.50
2022-12-25T22:14:19.118Z,6.40
2022-12-25T22:17:36.175Z,6.50
2022-12-25T22:20:03.919Z,6.50
2022-12-25T22:22:31.186Z,8.00
2022-12-25T22:25:00.306Z,6.50
2022-12-25T22:27:32.439Z,6.50
2022-12-25T22:29:59.579Z,6.50
2022-12-25T22:32:27.109Z,6.50
2022-12-25T22:34:54.398Z,6.50
2022-12-25T22:37:21.272Z,6.50
2022-12-25T22:39:47.992Z,6.50
2022-12-25T22:42:15.635Z,6.50
2022-12-25T22:44:42.399Z,6.50
2022-12-25T22:47:09.613Z,6.60
2022-12-25T22:49:36.329Z,6.60
2022-12-25T22:52:03.498Z,6.50
2022-12-25T22:54:31.576Z,6.60
2022-12-25T22:56:59.281Z,6.60
2022-12-25T22:59:26.399Z,6.50
2022-12-25T23:01:53.447Z,6.50
2022-12-25T23:04:20.513Z,6.50
2022-12-25T23:06:47.211Z,6.50
2022-12-25T23:09:22.143Z,6.50
2022-12-25T23:11:51.243Z,6.50
2022-12-25T23:14:36.298Z,6.50
2022-12-25T23:17:03.293Z,6.50
2022-12-25T23:19:48.653Z,6.50
2022-12-25T23:22:34.443Z,6.50
2022-12-25T23:25:19.882Z,6.50
2022-12-25T23:27:46.816Z,6.50
2022-12-25T23:30:16.225Z,6.50
2022-12-25T23:32:43.927Z,6.50
2022-12-25T23:35:11.703Z,6.50
2022-12-25T23:37:38.368Z,6.50
2022-12-25T23:40:05.712Z,6.50
2022-12-25T23:42:32.373Z,6.40
2022-12-25T23:44:58.992Z,6.40
2022-12-25T23:47:25.696Z,6.40
2022-12-25T23:49:52.345Z,6.40
2022-12-25T23:52:19.045Z,6.40
2022-12-25T23:54:45.779Z,6.40
2022-12-25T23:57:12.638Z,6.40
2022-12-25T23:59:39.454Z,6.40
